Time;durP1;ratioP1;P1;durP2;ratioP2;P2;SDS_P1;SDS_P2;PMS_P1;PMS_P2;Temp;Humidity;BMP_temperature;BMP_pressure;BME280_temperature;BME280_humidity;BME280_pressure;Samples;Min_cycle;Max_cycle;Signal;HPM_P1;HPM_P2
2023/04/26 00:01:57;;;;;;;8.70;3.50;;;3.80;99.90;;;;;;5031304;28;20034;-82
2023/04/26 00:04:24;;;;;;;9.43;3.70;;;3.70;99.90;;;;;;5014643;28;20094;-82
2023/04/26 00:06:49;;;;;;;8.10;3.17;;;3.70;99.90;;;;;;5014310;28;20128;-82
2023/04/26 00:09:17;;;;;;;9.73;3.30;;;3.70;99.90;;;;;;5030869;28;20191;-82
2023/04/26 00:11:43;;;;;;;10.73;3.60;;;3.70;99.90;;;;;;5014424;28;20053;-82
2023/04/26 00:14:09;;;;;;;9.63;3.53;;;3.60;99.90;;;;;;5014873;28;20105;-82
2023/04/26 00:16:35;;;;;;;10.13;3.70;;;3.60;99.90;;;;;;5013591;28;20067;-81
2023/04/26 00:19:01;;;;;;;6.93;3.27;;;3.60;99.90;;;;;;5014602;28;20417;-82
2023/04/26 00:21:27;;;;;;;8.60;2.93;;;3.60;99.90;;;;;;5014654;28;20045;-82
2023/04/26 00:23:53;;;;;;;9.13;3.17;;;3.60;99.90;;;;;;5014063;28;20511;-82
2023/04/26 00:26:20;;;;;;;7.70;3.20;;;3.60;99.90;;;;;;4998059;28;20044;-82
2023/04/26 00:28:45;;;;;;;6.37;3.10;;;3.60;99.90;;;;;;5010425;28;20120;-81
2023/04/26 00:31:16;;;;;;;9.60;3.53;;;3.60;99.90;;;;;;5014617;28;20751;-82
2023/04/26 00:33:41;;;;;;;9.63;3.40;;;3.60;99.90;;;;;;5014608;28;20092;-82
2023/04/26 00:36:07;;;;;;;7.30;3.30;;;3.60;99.90;;;;;;5013963;28;20073;-81
2023/04/26 00:38:33;;;;;;;7.17;3.20;;;3.60;99.90;;;;;;5030420;28;20092;-81
2023/04/26 00:40:58;;;;;;;5.50;2.83;;;3.70;99.90;;;;;;5014123;28;20045;-81
2023/04/26 00:43:24;;;;;;;10.30;3.23;;;3.70;99.90;;;;;;5014121;28;20038;-81
2023/04/26 00:45:51;;;;;;;6.30;3.30;;;3.70;99.90;;;;;;5030579;28;20037;-81
2023/04/26 00:48:17;;;;;;;7.80;3.17;;;3.70;99.90;;;;;;5024825;28;20080;-81
2023/04/26 00:50:43;;;;;;;7.40;3.07;;;3.70;99.90;;;;;;4994527;28;20124;-81
2023/04/26 00:53:13;;;;;;;8.50;3.73;;;3.70;99.90;;;;;;5028343;28;20039;-82
2023/04/26 00:55:40;;;;;;;8.27;2.80;;;3.70;99.90;;;;;;5030884;28;20041;-81
2023/04/26 00:58:06;;;;;;;9.07;3.27;;;3.70;99.90;;;;;;4997728;28;20497;-82
2023/04/26 01:00:31;;;;;;;10.10;2.90;;;3.70;99.90;;;;;;5014237;28;20056;-82
2023/04/26 01:02:57;;;;;;;9.77;3.47;;;3.70;99.90;;;;;;4997178;28;20038;-82
2023/04/26 01:05:23;;;;;;;8.73;3.30;;;3.70;99.90;;;;;;5030082;28;20037;-82
2023/04/26 01:07:49;;;;;;;8.33;3.40;;;3.70;99.90;;;;;;4995288;28;20132;-81
2023/04/26 01:10:16;;;;;;;7.60;3.23;;;3.70;99.90;;;;;;5029141;28;20125;-81
2023/04/26 01:12:42;;;;;;;6.43;3.00;;;3.60;99.90;;;;;;5013518;28;20045;-82
2023/04/26 01:15:09;;;;;;;7.10;3.50;;;3.60;99.90;;;;;;5013355;28;20077;-81
2023/04/26 01:17:36;;;;;;;8.63;3.00;;;3.60;99.90;;;;;;5029486;28;20633;-82
2023/04/26 01:20:03;;;;;;;12.60;3.37;;;3.60;99.90;;;;;;5029864;28;20060;-81
2023/04/26 01:22:32;;;;;;;9.50;3.60;;;3.60;99.90;;;;;;5029136;28;20052;-82
2023/04/26 01:25:00;;;;;;;7.33;2.77;;;3.60;99.90;;;;;;5013575;28;20038;-81
2023/04/26 01:27:26;;;;;;;8.07;3.37;;;3.50;99.90;;;;;;5030023;28;20099;-82
2023/04/26 01:29:51;;;;;;;9.70;3.00;;;3.50;99.90;;;;;;5030103;28;20037;-82
2023/04/26 01:32:17;;;;;;;8.73;3.40;;;3.50;99.90;;;;;;5029835;28;20132;-82
2023/04/26 01:34:43;;;;;;;7.60;3.07;;;3.50;99.90;;;;;;5013884;28;20101;-82
2023/04/26 01:37:09;;;;;;;5.97;3.27;;;3.50;99.90;;;;;;5029929;28;20103;-81
2023/04/26 01:39:37;;;;;;;7.07;3.10;;;3.50;99.90;;;;;;5030382;28;20565;-81
2023/04/26 01:42:04;;;;;;;9.60;3.47;;;3.40;99.90;;;;;;4981261;28;20042;-82
2023/04/26 01:44:30;;;;;;;9.07;3.00;;;3.40;99.90;;;;;;5002276;28;20041;-81
2023/04/26 01:46:55;;;;;;;5.60;2.90;;;3.40;99.90;;;;;;5031594;28;20103;-82
2023/04/26 01:49:21;;;;;;;9.80;3.37;;;3.40;99.90;;;;;;5017588;28;20500;-81
2023/04/26 01:51:47;;;;;;;6.43;3.27;;;3.40;99.90;;;;;;5018649;28;20152;-81
2023/04/26 01:54:12;;;;;;;10.17;3.90;;;3.30;99.90;;;;;;5014217;28;20080;-82
2023/04/26 01:56:38;;;;;;;6.07;3.33;;;3.30;99.90;;;;;;5011925;28;20072;-82
2023/04/26 01:59:04;;;;;;;9.33;3.83;;;3.30;99.90;;;;;;5033426;28;20045;-81
2023/04/26 02:01:30;;;;;;;8.20;2.97;;;3.30;99.90;;;;;;5033052;28;20658;-82
2023/04/26 02:03:56;;;;;;;7.50;3.47;;;3.20;99.90;;;;;;5016100;28;20478;-81
2023/04/26 02:06:21;;;;;;;9.40;3.23;;;3.20;99.90;;;;;;5026454;28;20095;-82
2023/04/26 02:08:48;;;;;;;11.40;3.30;;;3.20;99.90;;;;;;5033260;28;20048;-82
2023/04/26 02:11:13;;;;;;;10.10;3.70;;;3.20;99.90;;;;;;5006863;28;20056;-81
2023/04/26 02:13:39;;;;;;;9.50;3.30;;;3.20;99.90;;;;;;5010997;28;20489;-81
2023/04/26 02:16:06;;;;;;;5.40;3.10;;;3.20;99.90;;;;;;5032943;28;20045;-81
2023/04/26 02:18:32;;;;;;;8.33;3.40;;;3.30;99.90;;;;;;5033189;28;20056;-81
2023/04/26 02:20:58;;;;;;;10.27;3.20;;;3.30;99.90;;;;;;5032144;28;20038;-81
2023/04/26 02:23:23;;;;;;;6.33;3.43;;;3.20;99.90;;;;;;5016408;28;20041;-81
2023/04/26 02:25:49;;;;;;;7.30;3.30;;;3.30;99.90;;;;;;5016629;28;20038;-81
2023/04/26 02:28:15;;;;;;;7.83;3.27;;;3.30;99.90;;;;;;5032816;28;20517;-81
2023/04/26 02:30:41;;;;;;;6.33;2.97;;;3.40;99.90;;;;;;5032638;28;20049;-81
2023/04/26 02:33:07;;;;;;;8.47;3.07;;;3.40;99.90;;;;;;5016237;28;20045;-82
2023/04/26 02:35:34;;;;;;;6.97;3.17;;;3.40;99.90;;;;;;5033218;28;20041;-81
2023/04/26 02:38:00;;;;;;;10.63;3.40;;;3.40;99.90;;;;;;5016326;28;20044;-80
2023/04/26 02:40:25;;;;;;;8.00;3.30;;;3.50;99.90;;;;;;5016766;28;20053;-80
2023/04/26 02:42:51;;;;;;;6.70;3.60;;;3.50;99.90;;;;;;5032684;28;20037;-81
2023/04/26 02:45:17;;;;;;;8.27;3.17;;;3.50;99.90;;;;;;5032449;28;20224;-80
2023/04/26 02:47:42;;;;;;;8.30;2.90;;;3.50;99.90;;;;;;5016081;28;20041;-81
2023/04/26 02:50:09;;;;;;;5.47;2.83;;;3.50;99.90;;;;;;5032078;28;20125;-80
2023/04/26 02:52:35;;;;;;;5.90;2.77;;;3.50;99.90;;;;;;4996432;28;20048;-80
2023/04/26 02:55:03;;;;;;;7.57;3.20;;;3.40;99.90;;;;;;5032561;28;20256;-80
2023/04/26 02:57:30;;;;;;;5.43;3.00;;;3.40;99.90;;;;;;5015878;28;20116;-81
2023/04/26 02:59:56;;;;;;;8.37;3.33;;;3.50;99.90;;;;;;5015705;28;20045;-80
2023/04/26 03:02:22;;;;;;;5.10;3.37;;;3.50;99.90;;;;;;5015740;28;20064;-80
2023/04/26 03:04:47;;;;;;;7.63;3.23;;;3.50;99.90;;;;;;5032254;28;20500;-81
2023/04/26 03:07:13;;;;;;;7.37;3.00;;;3.50;99.90;;;;;;5003945;28;20104;-81
2023/04/26 03:09:39;;;;;;;6.77;3.03;;;3.50;99.90;;;;;;4976499;28;20069;-81
2023/04/26 03:12:08;;;;;;;6.33;3.07;;;3.50;99.90;;;;;;5024127;28;20103;-81
2023/04/26 03:14:34;;;;;;;7.93;3.20;;;3.50;99.90;;;;;;5015578;28;20128;-80
2023/04/26 03:17:01;;;;;;;8.90;3.63;;;3.40;99.90;;;;;;5032200;28;20077;-80
2023/04/26 03:19:27;;;;;;;8.63;3.17;;;3.40;99.90;;;;;;5032117;28;20041;-81
2023/04/26 03:21:53;;;;;;;6.67;3.23;;;3.40;99.90;;;;;;5015302;28;20044;-81
2023/04/26 03:24:19;;;;;;;7.47;3.50;;;3.40;99.90;;;;;;5015662;28;20046;-81
2023/04/26 03:26:45;;;;;;;6.83;3.30;;;3.40;99.90;;;;;;5031526;28;20053;-81
2023/04/26 03:29:11;;;;;;;5.47;2.80;;;3.40;99.90;;;;;;5031823;28;20045;-81
2023/04/26 03:31:37;;;;;;;6.37;3.10;;;3.30;99.90;;;;;;5015066;28;20042;-80
2023/04/26 03:34:03;;;;;;;9.27;3.30;;;3.30;99.90;;;;;;5031511;28;20037;-81
2023/04/26 03:36:29;;;;;;;12.17;3.40;;;3.30;99.90;;;;;;4992886;28;20052;-80
2023/04/26 03:38:55;;;;;;;7.53;3.23;;;3.30;99.90;;;;;;4990225;28;20393;-80
2023/04/26 03:41:21;;;;;;;5.20;2.80;;;3.30;99.90;;;;;;4998772;28;20046;-80
2023/04/26 03:43:47;;;;;;;8.00;3.47;;;3.30;99.90;;;;;;5031311;28;20037;-81
2023/04/26 03:46:13;;;;;;;8.07;3.20;;;3.30;99.90;;;;;;5031172;28;20042;-81
2023/04/26 03:48:39;;;;;;;7.00;3.20;;;3.30;99.90;;;;;;5031477;28;20099;-80
2023/04/26 03:51:05;;;;;;;5.97;2.90;;;3.30;99.90;;;;;;5031456;28;20117;-80
2023/04/26 03:53:31;;;;;;;10.23;3.30;;;3.20;99.90;;;;;;5031436;28;20128;-80
2023/04/26 03:55:57;;;;;;;7.23;3.37;;;3.20;99.90;;;;;;5029719;28;20159;-81
2023/04/26 03:58:24;;;;;;;6.93;3.07;;;3.30;99.90;;;;;;5006764;28;20120;-81
2023/04/26 04:00:50;;;;;;;6.40;3.07;;;3.30;99.90;;;;;;5014668;28;20056;-80
2023/04/26 04:03:16;;;;;;;5.40;3.17;;;3.20;99.90;;;;;;5031236;28;20034;-81
2023/04/26 04:05:42;;;;;;;6.77;3.53;;;3.20;99.90;;;;;;5014310;28;20053;-80
2023/04/26 04:08:08;;;;;;;7.13;3.03;;;3.30;99.90;;;;;;4995980;28;20050;-82
2023/04/26 04:10:35;;;;;;;7.80;2.90;;;3.30;99.90;;;;;;5008809;28;20448;-81
2023/04/26 04:13:01;;;;;;;7.20;2.97;;;3.30;99.90;;;;;;5030922;28;20042;-81
2023/04/26 04:15:27;;;;;;;6.73;2.93;;;3.20;99.90;;;;;;5014013;28;20044;-80
2023/04/26 04:17:52;;;;;;;8.87;3.27;;;3.20;99.90;;;;;;5014200;28;20448;-81
2023/04/26 04:20:20;;;;;;;6.50;3.33;;;3.20;99.90;;;;;;5012163;28;20049;-80
2023/04/26 04:22:46;;;;;;;7.80;3.37;;;3.30;99.90;;;;;;5030742;28;20053;-82
2023/04/26 04:25:12;;;;;;;7.60;3.20;;;3.30;99.90;;;;;;5014369;28;20053;-82
2023/04/26 04:27:41;;;;;;;9.20;2.70;;;3.40;99.90;;;;;;5013766;28;20067;-80
2023/04/26 04:30:08;;;;;;;5.30;2.60;;;3.30;99.90;;;;;;5013976;28;20037;-81
2023/04/26 04:32:38;;;;;;;5.93;3.17;;;3.40;99.90;;;;;;5014312;28;20401;-81
2023/04/26 04:35:04;;;;;;;7.87;3.47;;;3.40;99.90;;;;;;5029913;28;20056;-81
2023/04/26 04:37:33;;;;;;;10.57;3.43;;;3.40;99.90;;;;;;5013928;28;20413;-81
2023/04/26 04:39:59;;;;;;;6.13;3.20;;;3.40;99.90;;;;;;5014092;28;20041;-81
2023/04/26 04:42:28;;;;;;;6.37;3.00;;;3.40;99.90;;;;;;5030024;28;20689;-81
2023/04/26 04:44:54;;;;;;;6.70;3.20;;;3.40;99.90;;;;;;5030422;28;20175;-81
2023/04/26 04:47:20;;;;;;;9.20;3.53;;;3.40;99.90;;;;;;5030440;28;20045;-81
2023/04/26 04:49:46;;;;;;;5.87;3.00;;;3.40;99.90;;;;;;4997621;28;20041;-80
2023/04/26 04:52:12;;;;;;;9.97;3.53;;;3.50;99.90;;;;;;5030646;28;20052;-80
2023/04/26 04:54:37;;;;;;;8.93;3.40;;;3.40;99.90;;;;;;5008104;28;20033;-80
2023/04/26 04:57:04;;;;;;;9.03;3.40;;;3.50;99.90;;;;;;5009675;28;20038;-81
2023/04/26 04:59:30;;;;;;;8.17;3.40;;;3.50;99.90;;;;;;4997868;28;20041;-82
2023/04/26 05:01:55;;;;;;;10.33;3.70;;;3.50;99.90;;;;;;5030159;28;20053;-81
2023/04/26 05:04:21;;;;;;;7.33;3.33;;;3.50;99.90;;;;;;5026836;28;20104;-81
2023/04/26 05:06:47;;;;;;;5.90;3.10;;;3.50;99.90;;;;;;5030230;28;20064;-81
2023/04/26 05:09:12;;;;;;;7.87;3.50;;;3.60;99.90;;;;;;5014016;28;20081;-81
2023/04/26 05:11:38;;;;;;;9.00;3.10;;;3.60;99.90;;;;;;5030142;28;20473;-81
2023/04/26 05:14:04;;;;;;;13.40;3.93;;;3.70;99.90;;;;;;5030365;28;20045;-81
2023/04/26 05:16:30;;;;;;;6.93;3.53;;;3.80;99.90;;;;;;5030267;28;20579;-80
2023/04/26 05:18:55;;;;;;;5.53;3.47;;;3.80;99.90;;;;;;5014252;28;20418;-81
2023/04/26 05:21:22;;;;;;;7.33;3.57;;;3.80;99.90;;;;;;5014622;28;20045;-80
2023/04/26 05:23:48;;;;;;;7.00;3.47;;;3.80;99.90;;;;;;5033992;28;20056;-81
2023/04/26 05:26:16;;;;;;;6.67;3.17;;;3.90;99.90;;;;;;5000350;28;20042;-80
2023/04/26 05:28:42;;;;;;;6.67;3.43;;;3.90;99.90;;;;;;5033787;28;20602;-80
2023/04/26 05:31:08;;;;;;;14.67;4.63;;;3.90;99.90;;;;;;5033316;28;20128;-81
2023/04/26 05:33:34;;;;;;;6.40;3.10;;;4.00;99.90;;;;;;5033504;28;20041;-80
2023/04/26 05:36:01;;;;;;;10.90;4.00;;;4.00;99.90;;;;;;4985661;28;20057;-81
2023/04/26 05:38:27;;;;;;;9.60;3.80;;;4.00;99.90;;;;;;4989921;28;20042;-80
2023/04/26 05:40:53;;;;;;;8.27;3.50;;;4.10;99.90;;;;;;5025415;28;20477;-80
2023/04/26 05:43:18;;;;;;;8.20;3.30;;;4.10;99.90;;;;;;5000252;28;20042;-81
2023/04/26 05:45:55;;;;;;;7.03;3.60;;;4.10;99.90;;;;;;5010640;28;20040;-80
2023/04/26 05:48:22;;;;;;;8.87;4.20;;;4.20;99.90;;;;;;4981577;28;20120;-80
2023/04/26 05:50:48;;;;;;;6.40;3.10;;;4.10;99.90;;;;;;5021314;28;20041;-80
2023/04/26 05:53:14;;;;;;;7.90;3.30;;;4.10;99.90;;;;;;5013503;28;20046;-80
2023/04/26 05:55:41;;;;;;;10.43;5.20;;;4.10;99.90;;;;;;5003796;28;20048;-80
2023/04/26 05:58:10;;;;;;;10.97;5.33;;;4.10;99.90;;;;;;4999435;28;20042;-81
2023/04/26 06:00:40;;;;;;;9.57;5.50;;;4.10;99.90;;;;;;4996991;28;20085;-80
2023/04/26 06:03:06;;;;;;;15.97;7.80;;;4.10;99.90;;;;;;5029925;28;20397;-80
2023/04/26 06:05:32;;;;;;;18.10;8.23;;;4.10;99.90;;;;;;5008362;28;20054;-80
2023/04/26 06:07:58;;;;;;;16.77;8.87;;;4.20;99.90;;;;;;5021903;28;20103;-81
2023/04/26 06:10:23;;;;;;;15.87;7.03;;;4.30;99.90;;;;;;5003650;28;20481;-80
2023/04/26 06:12:49;;;;;;;14.97;6.43;;;4.40;99.90;;;;;;5025091;28;20064;-80
2023/04/26 06:15:15;;;;;;;8.60;4.07;;;4.50;99.90;;;;;;5009745;28;20140;-79
2023/04/26 06:17:41;;;;;;;8.77;4.50;;;4.60;99.90;;;;;;5024293;28;20052;-81
2023/04/26 06:20:10;;;;;;;6.93;3.43;;;4.80;99.90;;;;;;4981341;28;20029;-79
2023/04/26 06:22:36;;;;;;;8.60;4.10;;;4.90;99.90;;;;;;5019913;28;20051;-80
2023/04/26 06:25:04;;;;;;;8.93;3.80;;;5.10;99.90;;;;;;5004887;28;20402;-79
2023/04/26 06:27:29;;;;;;;7.00;3.60;;;5.20;99.90;;;;;;5009555;28;20048;-80
2023/04/26 06:29:55;;;;;;;5.73;3.10;;;5.40;99.90;;;;;;5004080;28;20042;-80
2023/04/26 06:32:21;;;;;;;5.13;3.33;;;5.50;99.90;;;;;;5019936;28;20046;-79
2023/04/26 06:34:46;;;;;;;8.00;3.27;;;5.60;99.90;;;;;;5023176;28;20081;-80
2023/04/26 06:37:12;;;;;;;5.90;2.93;;;5.70;99.90;;;;;;5012563;28;20084;-80
2023/04/26 06:39:38;;;;;;;6.80;3.17;;;5.80;99.90;;;;;;4987464;28;20370;-80
2023/04/26 06:42:05;;;;;;;9.97;3.50;;;5.80;99.90;;;;;;5009268;28;20060;-80
2023/04/26 06:44:31;;;;;;;7.07;3.30;;;5.90;99.90;;;;;;5017813;28;20069;-80
2023/04/26 06:46:56;;;;;;;6.47;2.87;;;6.10;99.90;;;;;;5003391;28;20653;-80
2023/04/26 06:49:23;;;;;;;5.43;3.00;;;6.20;99.90;;;;;;5020042;28;20038;-80
2023/04/26 06:51:48;;;;;;;7.63;3.30;;;6.20;99.90;;;;;;4981609;28;20430;-80
2023/04/26 06:54:14;;;;;;;4.57;2.93;;;6.30;99.90;;;;;;5002503;28;20099;-80
2023/04/26 06:56:40;;;;;;;8.73;3.00;;;6.30;99.90;;;;;;4972739;28;20046;-81
2023/04/26 06:59:06;;;;;;;5.87;3.07;;;6.40;99.90;;;;;;5007692;28;20409;-79
2023/04/26 07:01:34;;;;;;;4.27;2.60;;;6.40;99.90;;;;;;4993530;28;20054;-80
2023/04/26 07:04:02;;;;;;;6.33;2.87;;;6.40;99.90;;;;;;5003703;28;20104;-80
2023/04/26 07:06:28;;;;;;;3.93;2.80;;;6.40;99.90;;;;;;5009286;28;20064;-80
2023/04/26 07:08:54;;;;;;;10.90;3.23;;;6.50;99.90;;;;;;4989652;28;20042;-80
2023/04/26 07:11:20;;;;;;;5.83;2.77;;;6.50;99.90;;;;;;5013248;28;20124;-80
2023/04/26 07:13:46;;;;;;;6.87;3.03;;;6.50;99.90;;;;;;5029228;28;20619;-79
2023/04/26 07:16:12;;;;;;;7.23;2.80;;;6.60;99.90;;;;;;5007327;28;20555;-79
2023/04/26 07:18:39;;;;;;;5.67;2.33;;;6.60;99.90;;;;;;5000811;28;20053;-79
2023/04/26 07:21:05;;;;;;;5.57;2.90;;;6.70;99.90;;;;;;5020216;28;20613;-80
2023/04/26 07:23:31;;;;;;;7.23;2.50;;;6.70;99.90;;;;;;5008639;28;20041;-80
2023/04/26 07:25:57;;;;;;;6.00;2.77;;;6.80;99.90;;;;;;5017691;28;20493;-80
2023/04/26 07:28:23;;;;;;;5.20;2.10;;;6.80;99.90;;;;;;5010246;28;20035;-80
2023/04/26 07:30:48;;;;;;;7.10;2.40;;;6.90;99.90;;;;;;5016257;28;20038;-81
2023/04/26 07:33:14;;;;;;;6.57;2.70;;;6.90;99.90;;;;;;5008130;28;20049;-81
2023/04/26 07:35:42;;;;;;;10.10;3.80;;;7.00;99.90;;;;;;5007320;28;20085;-81
2023/04/26 07:38:09;;;;;;;4.17;2.07;;;7.20;99.90;;;;;;5011030;28;20063;-81
2023/04/26 07:40:35;;;;;;;4.63;2.47;;;7.40;99.90;;;;;;5014544;28;20493;-80
2023/04/26 07:43:01;;;;;;;6.97;2.40;;;7.60;99.90;;;;;;5012240;28;20060;-80
2023/04/26 07:45:26;;;;;;;7.37;2.60;;;7.80;99.90;;;;;;5028934;28;20152;-80
2023/04/26 07:47:53;;;;;;;4.50;2.20;;;8.00;99.90;;;;;;5030306;28;20041;-80
2023/04/26 07:50:19;;;;;;;5.40;2.70;;;8.10;99.90;;;;;;5030919;28;20460;-80
2023/04/26 07:52:45;;;;;;;8.07;2.50;;;8.20;99.90;;;;;;5013578;28;20061;-79
2023/04/26 07:55:11;;;;;;;5.00;2.30;;;8.30;99.90;;;;;;5030041;28;20136;-80
2023/04/26 07:57:37;;;;;;;4.93;1.90;;;8.40;99.90;;;;;;5030753;28;20137;-80
2023/04/26 08:00:08;;;;;;;5.67;2.10;;;8.50;99.90;;;;;;5013550;28;20106;-79
2023/04/26 08:02:34;;;;;;;5.63;2.22;;;8.60;99.90;;;;;;5030271;28;20045;-80
2023/04/26 08:05:01;;;;;;;4.37;2.30;;;8.60;99.90;;;;;;5009168;28;20091;-80
2023/04/26 08:07:26;;;;;;;5.47;2.03;;;8.50;99.90;;;;;;5030076;28;20085;-79
2023/04/26 08:09:52;;;;;;;8.03;2.20;;;8.50;99.90;;;;;;5030512;28;20069;-79
2023/04/26 08:12:18;;;;;;;4.87;2.07;;;8.50;99.90;;;;;;4997234;28;20046;-81
2023/04/26 08:14:45;;;;;;;4.03;2.13;;;8.60;99.90;;;;;;5027798;28;20108;-81
2023/04/26 08:17:11;;;;;;;5.53;2.23;;;8.70;99.90;;;;;;4986564;28;20037;-80
2023/04/26 08:19:37;;;;;;;5.60;2.20;;;8.80;99.90;;;;;;5008802;28;20556;-80
2023/04/26 08:22:03;;;;;;;5.40;2.63;;;8.80;99.90;;;;;;5002181;28;20069;-79
2023/04/26 08:24:28;;;;;;;6.77;2.60;;;8.90;99.90;;;;;;5008126;28;20030;-80
2023/04/26 08:26:55;;;;;;;4.57;1.97;;;8.90;99.90;;;;;;4991427;28;20129;-80
2023/04/26 08:29:22;;;;;;;4.93;2.30;;;9.00;99.90;;;;;;5008943;28;20080;-79
2023/04/26 08:31:48;;;;;;;6.97;2.10;;;9.10;99.90;;;;;;5000606;28;20686;-80
2023/04/26 08:34:13;;;;;;;5.00;1.97;;;9.00;99.90;;;;;;5013667;28;20037;-80
2023/04/26 08:36:43;;;;;;;5.43;2.10;;;9.10;99.90;;;;;;5029578;28;20076;-80
2023/04/26 08:39:11;;;;;;;4.77;2.30;;;9.20;99.90;;;;;;5030370;28;20059;-81
2023/04/26 08:41:44;;;;;;;4.43;2.13;;;9.30;99.90;;;;;;5030087;28;20049;-80
2023/04/26 08:44:10;;;;;;;5.90;2.53;;;9.30;99.90;;;;;;5002532;28;20033;-80
2023/04/26 08:47:14;;;;;;;3.10;2.17;;;9.40;99.90;;;;;;5008347;28;20121;-79
2023/04/26 08:49:51;;;;;;;4.70;2.30;;;9.30;99.90;;;;;;4996470;28;20053;-79
2023/04/26 08:52:21;;;;;;;3.47;2.17;;;9.30;99.90;;;;;;5009864;28;20045;-79
2023/04/26 08:54:49;;;;;;;5.57;3.07;;;9.40;99.90;;;;;;5015044;28;20111;-80
2023/04/26 08:57:15;;;;;;;7.63;2.60;;;9.50;99.90;;;;;;4989972;28;20042;-79
2023/04/26 08:59:42;;;;;;;6.23;2.40;;;9.40;99.90;;;;;;5001825;28;20046;-80
2023/04/26 09:02:10;;;;;;;8.53;2.70;;;9.30;99.90;;;;;;5032547;28;20037;-79
2023/04/26 09:04:36;;;;;;;6.20;2.80;;;9.40;99.90;;;;;;5030769;28;20777;-80
2023/04/26 09:07:03;;;;;;;4.87;2.13;;;9.60;99.90;;;;;;5031911;28;20068;-81
2023/04/26 09:09:36;;;;;;;4.63;2.43;;;9.70;99.90;;;;;;5012198;28;20046;-81
2023/04/26 09:12:03;;;;;;;7.10;2.83;;;9.80;99.90;;;;;;5003475;28;20072;-81
2023/04/26 09:14:29;;;;;;;5.27;2.30;;;9.90;99.90;;;;;;5033571;28;20045;-80
2023/04/26 09:16:55;;;;;;;4.77;2.30;;;10.10;99.90;;;;;;5032777;28;20041;-80
2023/04/26 09:19:43;;;;;;;6.30;3.03;;;10.20;99.90;;;;;;5024900;28;20144;-80
2023/04/26 09:22:09;;;;;;;4.77;2.20;;;10.20;99.90;;;;;;4978251;28;20047;-80
2023/04/26 09:24:49;;;;;;;5.43;1.97;;;10.40;99.90;;;;;;5018438;28;20043;-80
2023/04/26 09:27:15;;;;;;;6.90;2.87;;;10.50;99.90;;;;;;5016897;28;20034;-80
2023/04/26 09:29:58;;;;;;;5.07;2.03;;;10.50;99.90;;;;;;5033529;28;20046;-80
2023/04/26 09:32:25;;;;;;;3.37;2.00;;;10.70;99.90;;;;;;5033136;28;20528;-80
2023/04/26 09:34:50;;;;;;;6.50;2.53;;;10.70;99.90;;;;;;5016929;28;20054;-80
2023/04/26 09:37:16;;;;;;;6.00;2.13;;;10.80;99.90;;;;;;5032611;28;20053;-80
2023/04/26 09:39:42;;;;;;;7.63;2.40;;;10.60;99.90;;;;;;5033035;28;20401;-80
2023/04/26 09:42:10;;;;;;;4.10;2.27;;;10.40;99.90;;;;;;5033318;28;20088;-80
2023/04/26 09:44:36;;;;;;;7.17;2.30;;;10.30;99.90;;;;;;5016850;28;20136;-80
2023/04/26 09:47:11;;;;;;;3.83;2.23;;;10.10;99.90;;;;;;5027868;28;20069;-80
2023/04/26 09:49:45;;;;;;;4.27;2.30;;;9.90;99.90;;;;;;4997196;28;20125;-80
2023/04/26 09:52:11;;;;;;;4.63;2.30;;;9.70;99.90;;;;;;4997234;28;20045;-80
2023/04/26 09:54:38;;;;;;;4.10;2.10;;;9.50;99.90;;;;;;5028127;28;20041;-80
2023/04/26 09:57:04;;;;;;;6.00;2.50;;;9.40;99.90;;;;;;5027104;28;20493;-80
2023/04/26 10:00:07;;;;;;;5.57;2.40;;;9.10;99.90;;;;;;5031514;28;20045;-78
2023/04/26 10:02:33;;;;;;;7.07;2.60;;;8.90;99.90;;;;;;4998415;28;20053;-80
2023/04/26 10:05:00;;;;;;;5.43;2.80;;;8.50;99.90;;;;;;5032312;28;20042;-80
2023/04/26 10:07:26;;;;;;;5.27;2.77;;;8.30;99.90;;;;;;5014739;28;20092;-79
2023/04/26 10:09:53;;;;;;;7.27;2.80;;;8.10;99.90;;;;;;4999433;28;20130;-80
2023/04/26 10:12:19;;;;;;;6.73;3.20;;;8.00;99.90;;;;;;5016142;28;20033;-80
2023/04/26 10:14:45;;;;;;;8.33;2.73;;;7.90;99.90;;;;;;5032840;28;20037;-79
2023/04/26 10:17:12;;;;;;;7.80;2.87;;;7.80;99.90;;;;;;5032622;28;20049;-80
2023/04/26 10:19:42;;;;;;;6.87;3.07;;;7.70;99.90;;;;;;4999750;28;20041;-80
2023/04/26 10:22:21;;;;;;;7.40;2.97;;;7.80;99.90;;;;;;5015948;28;20041;-80
2023/04/26 10:24:47;;;;;;;5.93;2.90;;;7.90;99.90;;;;;;5032456;28;20064;-80
2023/04/26 10:27:13;;;;;;;6.00;2.70;;;7.90;99.90;;;;;;5031605;28;20120;-80
2023/04/26 10:29:54;;;;;;;7.33;2.97;;;8.00;99.90;;;;;;5015732;28;20121;-80
2023/04/26 10:32:20;;;;;;;5.23;2.73;;;8.10;99.90;;;;;;5015911;28;20053;-80
2023/04/26 10:35:11;;;;;;;7.30;3.10;;;8.20;99.90;;;;;;5016083;28;20077;-79
2023/04/26 10:38:00;;;;;;;7.60;3.20;;;8.40;99.90;;;;;;4999110;28;20437;-79
2023/04/26 10:40:33;;;;;;;7.03;3.37;;;8.60;99.90;;;;;;5003154;28;20049;-80
2023/04/26 10:43:10;;;;;;;6.30;3.03;;;8.70;99.90;;;;;;5015349;28;20041;-79
2023/04/26 10:45:38;;;;;;;5.63;3.20;;;8.90;99.90;;;;;;5031832;28;20052;-80
2023/04/26 10:48:14;;;;;;;4.10;2.63;;;9.20;99.90;;;;;;5009499;28;20037;-79
2023/04/26 10:50:59;;;;;;;10.30;3.33;;;9.40;99.90;;;;;;5007831;28;20049;-81
2023/04/26 10:53:27;;;;;;;5.57;2.77;;;9.50;99.90;;;;;;5023310;28;20049;-79
2023/04/26 10:55:53;;;;;;;7.10;3.20;;;9.80;99.90;;;;;;5002428;28;20042;-81
2023/04/26 10:58:28;;;;;;;5.43;2.50;;;9.90;99.90;;;;;;5029112;28;20037;-80
2023/04/26 11:01:16;;;;;;;7.57;2.70;;;9.90;99.90;;;;;;5031849;28;20392;-80
2023/04/26 11:03:57;;;;;;;6.07;2.93;;;10.00;99.90;;;;;;5031966;28;20117;-80
2023/04/26 11:06:24;;;;;;;5.63;2.80;;;9.80;99.90;;;;;;5013058;28;20064;-80
2023/04/26 11:08:50;;;;;;;5.53;2.57;;;9.70;99.90;;;;;;5006816;28;20288;-80
2023/04/26 11:11:21;;;;;;;7.03;2.90;;;9.80;99.90;;;;;;5031409;28;20092;-80
2023/04/26 11:13:46;;;;;;;6.57;3.10;;;10.00;99.90;;;;;;5014484;28;20048;-78
2023/04/26 11:16:14;;;;;;;5.10;3.03;;;10.00;99.90;;;;;;5031275;28;20041;-81
2023/04/26 11:18:41;;;;;;;7.27;2.67;;;10.20;99.90;;;;;;5010204;28;20107;-80
2023/04/26 11:21:08;;;;;;;5.13;3.00;;;10.40;99.90;;;;;;5031125;28;20049;-79
2023/04/26 11:23:35;;;;;;;7.93;3.33;;;10.40;99.90;;;;;;5030659;28;20026;-78
2023/04/26 11:26:02;;;;;;;6.40;2.63;;;10.60;99.90;;;;;;5031104;28;20037;-80
2023/04/26 11:28:32;;;;;;;5.60;2.63;;;10.50;99.90;;;;;;5025679;28;20123;-79
2023/04/26 11:30:58;;;;;;;3.77;2.10;;;10.40;99.90;;;;;;5001301;28;20041;-80
2023/04/26 11:33:24;;;;;;;5.80;2.60;;;10.60;99.90;;;;;;5031027;28;20152;-80
2023/04/26 11:35:51;;;;;;;5.53;2.70;;;10.80;99.90;;;;;;5014629;28;20421;-80
2023/04/26 11:38:20;;;;;;;5.73;2.40;;;10.90;99.90;;;;;;4998129;28;20041;-80
2023/04/26 11:40:59;;;;;;;7.33;2.40;;;11.00;99.90;;;;;;5031095;28;20053;-80
2023/04/26 11:43:36;;;;;;;4.80;2.30;;;11.10;94.90;;;;;;5030766;28;20050;-80
2023/04/26 11:46:02;;;;;;;3.87;2.70;;;11.10;92.70;;;;;;5014526;28;20045;-81
2023/04/26 11:48:29;;;;;;;5.37;2.83;;;11.10;99.90;;;;;;5030923;28;20504;-80
2023/04/26 11:50:59;;;;;;;8.90;2.27;;;11.10;99.90;;;;;;5030355;28;20048;-80
2023/04/26 11:53:37;;;;;;;3.40;2.07;;;10.90;94.10;;;;;;5030808;28;20063;-80
2023/04/26 11:56:13;;;;;;;7.07;2.30;;;11.00;99.90;;;;;;5030818;28;20051;-80
2023/04/26 11:58:38;;;;;;;4.67;2.20;;;11.20;99.90;;;;;;5014342;28;20433;-80
2023/04/26 12:01:05;;;;;;;4.23;2.30;;;11.30;99.90;;;;;;5017117;28;20041;-80
2023/04/26 12:03:36;;;;;;;3.03;2.00;;;11.20;93.50;;;;;;5020741;28;20084;-82
2023/04/26 12:06:03;;;;;;;5.70;2.10;;;11.30;98.00;;;;;;4970948;28;20053;-77
2023/04/26 12:08:30;;;;;;;4.20;2.23;;;11.40;98.80;;;;;;4959426;28;20425;-79
2023/04/26 12:11:02;;;;;;;5.10;2.13;;;11.30;94.80;;;;;;5006342;28;20049;-79
2023/04/26 12:13:28;;;;;;;;;;;11.30;93.10;;;;;;5005735;28;20131;-80
2023/04/26 12:15:54;;;;;;;5.00;2.40;;;11.00;99.90;;;;;;4992000;28;19960;-80
2023/04/26 12:18:22;;;;;;;7.77;2.67;;;10.70;99.90;;;;;;5010222;28;20042;-80
2023/04/26 12:20:48;;;;;;;5.97;2.70;;;10.20;99.90;;;;;;5010302;28;20380;-81
2023/04/26 12:23:15;;;;;;;5.63;2.60;;;9.80;99.90;;;;;;5023098;28;20039;-80
2023/04/26 12:25:55;;;;;;;6.53;2.80;;;9.40;99.90;;;;;;4994637;28;20433;-79
2023/04/26 12:28:22;;;;;;;9.20;3.40;;;9.20;99.90;;;;;;5009235;28;20056;-79
2023/04/26 12:30:48;;;;;;;6.90;3.17;;;8.90;99.90;;;;;;5004297;28;20041;-79
2023/04/26 12:33:15;;;;;;;5.90;3.00;;;8.70;99.90;;;;;;4990864;28;20041;-80
2023/04/26 12:35:41;;;;;;;11.30;3.50;;;8.60;99.90;;;;;;4989672;28;20140;-81
2023/04/26 12:38:07;;;;;;;11.70;3.60;;;8.50;99.90;;;;;;5013836;28;20038;-80
2023/04/26 12:40:32;;;;;;;10.17;3.60;;;8.50;99.90;;;;;;5014434;28;20052;-80
2023/04/26 12:42:58;;;;;;;4.77;3.20;;;8.50;99.90;;;;;;5009244;28;20100;-80
2023/04/26 12:45:25;;;;;;;6.77;3.20;;;8.40;99.90;;;;;;5008643;28;20060;-80
2023/04/26 12:47:52;;;;;;;8.83;3.40;;;8.50;99.90;;;;;;5024008;28;20103;-81
2023/04/26 12:50:18;;;;;;;6.23;2.93;;;8.50;99.90;;;;;;4998628;28;20073;-80
2023/04/26 12:52:44;;;;;;;5.87;3.07;;;8.60;99.90;;;;;;5015581;28;20053;-81
2023/04/26 12:55:12;;;;;;;6.40;3.07;;;8.80;99.90;;;;;;4999731;28;20042;-80
2023/04/26 12:57:40;;;;;;;5.73;2.87;;;8.80;99.90;;;;;;4993290;28;20041;-80